[ 高 清 坊 ]

[ 909 主题 / 1800231 回复 ]

版块介绍: 论坛制作高清同志影视

版主: 晃司, blv

 类型 作者/时间 回复 查看 最后发表
  [酷儿们].Queers.2017.s01.720p.WEBRip.x264.AAC-QaFoNE  ...23456..15 blv 2018-2-26 355/7842 jay_chou 4 天前 12:10
  [爱砸了].Screwed.2017.720p.WEBRip.x264.AAC-QaFoNE  ...23456..72 blv 2018-2-22 1780/21160 winterboy1224 前天 13:08
  [人生密密缝].Close.Knit.2017.720p.BDRip.x264.AC3-QaFoNE  ...23456..26 blv 2018-2-10 627/13561 hugh_1204 7 天前 12:03
  [佩德罗].Pedro.2016.Short.1080p.x264.AAC-QaFoNE  ...23456..68 blv 2018-2-6 1697/18244 jay_chou 4 天前 12:05
  [男孩们].Boys.2016.Short.1080p.x264.AAC-QaFoNE  ...23456..21 blv 2018-1-31 507/11829 sifreya 5 天前 11:58
  [天使的身体].Body.of.Angels.2016.Short.x264.AAC-QaFoNE  ...23456..64 blv 2018-1-27 1578/18855 jay_chou 4 天前 12:01
  [梦之船].Dream.Boat.2017.720p.WEBRip.x264.AC3-QaFoNE  ...23456..72 blv 2018-1-24 1775/19951 拎回来 昨天 03:10
  [裸男孩].A.Naked.Boy.2016.Short.1080p.x264.AAC-QaFoNE  ...23456..45 blv 2018-1-20 1109/16796 jay_chou 4 天前 11:58
  [上帝之国].Gods.Own.Country.2017.1080p.WEB-DL.x264.AC3-QaFoNE  ...23456..135 blv 2018-1-16 3368/36087 viagraboy 昨天 12:16
  [阿波罗].Apollon.2016.Short.x264.AAC-QaFoNE  ...23456..43 blv 2018-1-13 1061/14301 jay_chou 4 天前 11:56
  [伤口].The.Wound.2017.720p.WEB-DL.x264.AC3-QaFoNE  ...23456..45 blv 2018-1-8 1114/17677 jay_chou 4 天前 11:54
  [深郁之蓝].Ultra.Bleu.2016.Short.720p.x264.AAC-QaFoNE  ...23456..32 blv 2018-1-5 779/14380 jay_chou 4 天前 11:52
  [每分钟120击].120.Beats.Per.Minute.BPM.2017.720p.WEBRip.x264.AAC-QaFoNE  ...23456..94 blv 2018-1-1 2348/26839 jay_chou 4 天前 11:50
  [嫉妒做客].Jealousy.Is.My.Guest.2016.Short.1080p.x264.AAC-QaFoNE  ...23456..41 blv 2017-12-28 1011/16144 jay_chou 4 天前 11:45
  [请以你的名字呼唤我].Call.Me.By.Your.Name.2017.DVDScr.Upscaled.x264.AAC-QaFoNE 评价指数 19  ...23456..121 blv 2017-12-23 3014/30403 sorefeet 前天 10:15
  [疾走马丁].Speed.Walking.2014.1080p.WEBRip.x265.AC3-QaFoNE  ...23456..23 blv 2017-12-22 560/13190 蓝染大人 2018-10-31 22:52
  [帅气的恶魔].Handsome.Devil.2016.1080p.WEB-DL.x265.AC3-QaFoNE  ...23456..61 blv 2017-12-15 1524/20346 xxixi 5 小时前
  [觉醒彩虹].Woke.2017.S01.1080p.WEBRip.x264.AAC-QaFoNE  ...23456..42 blv 2017-12-8 1025/16330 xuxiangfei0724 4 天前 17:32
  [公猫].Tomcat.2016.DVDRip.x264.AC3-QaFoNE  ...23456..55 blv 2017-12-7 1354/16861 逆流之心 5 天前 11:10
  [归巢].The.Nest.2016.DVDRip.x264.AAC-QaFoNE  ...23456..44 blv 2017-12-1 1089/14860 later 4 天前 00:03
  [日常对话].Small.Talk.2016.720p.WEBRip.x264.AAC-QaFoNE  ...23456..15 blv 2017-11-27 370/12575 later 4 天前 00:04
  [克罗地亚宪法].The.Constitution.2016.720p.WEBRip.x264.AC3-QaFoNE  ...23456..24 blv 2017-11-18 587/12820 ratify8800 2018-11-16 14:27
  [沙滩鼠].Beach.Rats.2017.1080p.BDRip.x265.AAC.AC3-QaFoNE  ...23456..97 blv 2017-11-11 2416/27333 superdogs 5 天前 21:26
  [老虎之战].The.Tigers.Fight.2016.Short.1080p.x264.AAC-QaFoNE  ...23456..28 blv 2017-10-22 683/14655 later 4 天前 00:05
  [白日守门人].Daytime.Doorman.2016.Short.1080p.x264.AAC-QaFoNE  ...23456..82 blv 2017-10-11 2044/33976 later 4 天前 00:07
  • QAF三国群英传信息联盟发布平台
  •